Time;durP1;ratioP1;P1;durP2;ratioP2;P2;SDS_P1;SDS_P2;PMS_P1;PMS_P2;Temp;Humidity;BMP_temperature;BMP_pressure;BME280_temperature;BME280_humidity;BME280_pressure;Samples;Min_cycle;Max_cycle;Signal;HPM_P1;HPM_P2
2022/01/19 00:00:35;;;;;;;0.80;0.80;;;5.20;90.60;;;;;;5024249;28;20053;-83
2022/01/19 00:03:01;;;;;;;0.98;0.88;;;5.20;90.70;;;;;;5003855;28;20044;-83
2022/01/19 00:05:26;;;;;;;1.52;0.90;;;5.20;90.60;;;;;;5033738;28;20033;-83
2022/01/19 00:07:52;;;;;;;1.05;0.90;;;5.20;90.60;;;;;;5046161;28;20029;-83
2022/01/19 00:10:20;;;;;;;0.65;0.65;;;5.20;90.60;;;;;;5042178;28;20134;-83
2022/01/19 00:12:46;;;;;;;0.55;0.55;;;5.20;90.60;;;;;;5002644;28;20047;-83
2022/01/19 00:15:12;;;;;;;1.35;0.80;;;5.20;90.60;;;;;;5013108;28;20033;-83
2022/01/19 00:17:38;;;;;;;1.10;0.90;;;5.10;90.50;;;;;;5018976;28;20045;-83
2022/01/19 00:20:06;;;;;;;0.70;0.70;;;5.10;90.50;;;;;;5043442;28;20060;-82
2022/01/19 00:22:31;;;;;;;0.68;0.68;;;5.10;90.50;;;;;;4999544;28;20041;-83
2022/01/19 00:24:57;;;;;;;1.00;0.95;;;5.10;90.50;;;;;;5001487;28;20037;-82
2022/01/19 00:27:22;;;;;;;1.30;0.82;;;5.10;90.50;;;;;;5024513;28;20045;-83
2022/01/19 00:29:48;;;;;;;1.23;0.85;;;5.10;90.60;;;;;;5020687;28;20037;-82
2022/01/19 00:32:13;;;;;;;1.75;1.23;;;5.10;90.50;;;;;;5023554;28;20116;-82
2022/01/19 00:34:39;;;;;;;1.95;1.50;;;5.10;90.50;;;;;;5016240;28;20025;-83
2022/01/19 00:37:04;;;;;;;1.55;1.45;;;5.10;90.50;;;;;;5021434;28;20060;-85
2022/01/19 00:39:32;;;;;;;2.58;1.42;;;5.10;90.50;;;;;;4993559;28;20400;-82
2022/01/19 00:41:58;;;;;;;1.75;1.40;;;5.10;90.50;;;;;;5022786;28;20025;-82
2022/01/19 00:44:24;;;;;;;2.78;1.30;;;5.10;90.50;;;;;;5033587;28;20036;-82
2022/01/19 00:46:49;;;;;;;1.63;1.20;;;5.10;90.50;;;;;;5011893;28;20082;-84
2022/01/19 00:49:15;;;;;;;1.38;1.23;;;5.10;90.50;;;;;;5002848;28;20041;-84
2022/01/19 00:51:41;;;;;;;2.78;1.70;;;5.10;90.50;;;;;;5003999;28;20044;-84
2022/01/19 00:54:06;;;;;;;5.82;2.60;;;5.10;90.50;;;;;;5049087;28;20037;-81
2022/01/19 00:56:33;;;;;;;2.35;2.15;;;5.10;90.50;;;;;;5024434;28;20025;-81
2022/01/19 00:58:59;;;;;;;2.92;1.90;;;5.10;90.50;;;;;;5016623;28;20044;-82
2022/01/19 01:01:25;;;;;;;2.45;2.05;;;5.10;90.80;;;;;;5028564;28;20044;-82
2022/01/19 01:03:50;;;;;;;2.53;2.13;;;5.10;90.50;;;;;;5015736;28;20143;-81
2022/01/19 01:06:16;;;;;;;4.45;3.35;;;5.10;90.50;;;;;;5017112;28;20517;-82
2022/01/19 01:08:43;;;;;;;4.15;3.20;;;5.00;90.50;;;;;;5033563;28;20025;-82
2022/01/19 01:11:08;;;;;;;3.25;2.80;;;5.00;90.40;;;;;;4999900;28;20457;-81
2022/01/19 01:16:31;;;;;;;5.20;3.47;;;5.00;90.40;;;;;;5002267;28;20137;-81
2022/01/19 01:18:56;;;;;;;3.40;3.10;;;5.00;90.40;;;;;;5031988;28;20487;-81
2022/01/19 01:21:22;;;;;;;5.65;3.10;;;5.00;90.50;;;;;;5020574;28;20039;-81
2022/01/19 01:23:48;;;;;;;3.65;3.25;;;5.00;90.50;;;;;;5022786;28;20052;-82
2022/01/19 01:26:13;;;;;;;3.45;2.97;;;5.00;90.50;;;;;;5027444;28;20032;-81
2022/01/19 01:28:39;;;;;;;3.67;3.33;;;5.00;90.50;;;;;;5015759;28;20120;-81
2022/01/19 01:31:07;;;;;;;5.05;3.22;;;5.00;90.40;;;;;;4994101;28;20033;-81
2022/01/19 01:33:33;;;;;;;3.95;3.50;;;5.00;90.40;;;;;;5001911;28;20041;-81
2022/01/19 01:35:58;;;;;;;3.90;3.38;;;5.00;90.40;;;;;;5002350;28;20059;-82
2022/01/19 01:38:24;;;;;;;3.85;3.10;;;5.00;90.40;;;;;;5048236;28;20044;-82
2022/01/19 01:40:50;;;;;;;5.40;3.42;;;5.00;90.40;;;;;;5051763;28;20725;-81
2022/01/19 01:43:15;;;;;;;3.90;3.45;;;5.00;90.50;;;;;;5017721;28;20040;-81
2022/01/19 01:45:43;;;;;;;4.50;2.90;;;5.00;90.50;;;;;;5011107;28;20052;-81
2022/01/19 01:48:13;;;;;;;4.15;3.60;;;5.00;90.50;;;;;;5012937;28;20665;-81
2022/01/19 01:53:28;;;;;;;3.45;2.78;;;4.90;90.40;;;;;;5024326;28;20454;-81
2022/01/19 01:55:55;;;;;;;3.17;2.90;;;4.90;90.40;;;;;;5005648;28;20146;-81
2022/01/19 01:58:21;;;;;;;2.90;2.28;;;4.90;90.40;;;;;;5019518;28;20368;-81
2022/01/19 02:00:46;;;;;;;4.03;2.63;;;4.90;90.40;;;;;;5037446;28;20079;-82
2022/01/19 02:03:12;;;;;;;2.58;2.33;;;4.90;90.40;;;;;;5038207;28;20025;-81
2022/01/19 02:05:47;;;;;;;3.22;2.65;;;4.90;90.30;;;;;;5016257;28;20044;-81
2022/01/19 02:08:20;;;;;;;3.42;2.47;;;4.80;90.30;;;;;;4987157;28;20056;-81
2022/01/19 02:16:35;;;;;;;4.53;2.75;;;4.90;90.30;;;;;;5032558;28;20083;-81
2022/01/19 02:21:51;;;;;;;3.95;2.75;;;4.80;90.30;;;;;;5002501;28;20033;-81
2022/01/19 02:24:20;;;;;;;4.18;3.22;;;4.80;90.30;;;;;;5010082;28;20091;-83
2022/01/19 02:28:55;;;;;;;3.85;2.53;;;4.80;90.30;;;;;;5009806;28;20025;-83
2022/01/19 02:40:23;;;;;;;3.78;3.33;;;4.80;90.20;;;;;;5040009;28;20063;-82
2022/01/19 02:43:08;;;;;;;3.85;3.50;;;4.80;90.20;;;;;;5003784;28;20037;-84
2022/01/19 02:51:07;;;;;;;4.10;3.65;;;4.80;90.20;;;;;;5033784;28;20738;-83
2022/01/19 02:53:33;;;;;;;3.75;3.08;;;4.80;90.20;;;;;;4998603;28;20040;-82
2022/01/19 02:55:59;;;;;;;4.00;3.35;;;4.70;90.10;;;;;;5029105;28;20037;-82
2022/01/19 02:58:25;;;;;;;5.50;3.75;;;4.70;90.10;;;;;;5015543;28;20075;-82
2022/01/19 03:09:03;;;;;;;4.78;2.90;;;4.70;90.10;;;;;;5013853;28;20052;-81
2022/01/19 03:11:29;;;;;;;3.17;2.95;;;4.70;90.10;;;;;;5014022;28;20033;-81
2022/01/19 03:13:54;;;;;;;3.35;3.05;;;4.70;90.00;;;;;;5003437;28;20037;-82
2022/01/19 03:16:20;;;;;;;3.30;3.00;;;4.70;90.00;;;;;;5017135;28;20052;-82
2022/01/19 03:18:46;;;;;;;3.50;3.20;;;4.70;90.00;;;;;;5047331;28;20534;-82
2022/01/19 03:21:12;;;;;;;4.95;4.20;;;4.60;90.00;;;;;;5026903;28;20037;-82
2022/01/19 03:23:37;;;;;;;5.10;4.18;;;4.60;90.00;;;;;;5009351;28;20040;-83
2022/01/19 03:26:06;;;;;;;4.97;4.43;;;4.60;90.00;;;;;;5031984;28;20055;-82
2022/01/19 03:28:33;;;;;;;4.60;4.20;;;4.60;90.00;;;;;;5013133;28;20040;-82
2022/01/19 03:30:58;;;;;;;5.30;4.13;;;4.60;90.00;;;;;;5049424;28;20124;-82
2022/01/19 03:33:24;;;;;;;4.20;3.80;;;4.60;90.00;;;;;;5042315;28;20380;-85
2022/01/19 03:35:49;;;;;;;5.72;4.68;;;4.60;90.00;;;;;;5006724;28;20125;-83
2022/01/19 03:38:15;;;;;;;5.35;4.45;;;4.60;90.00;;;;;;5001217;28;20037;-84
2022/01/19 03:40:40;;;;;;;6.55;4.50;;;4.60;90.00;;;;;;5056359;28;20040;-85
2022/01/19 03:43:06;;;;;;;4.70;3.67;;;4.60;90.00;;;;;;5011246;28;20038;-83
2022/01/19 03:45:33;;;;;;;5.80;4.05;;;4.60;90.00;;;;;;5023565;28;20096;-85
2022/01/19 03:50:40;;;;;;;4.65;4.22;;;4.60;90.00;;;;;;5026054;28;20116;-85
2022/01/19 03:53:05;;;;;;;5.57;4.53;;;4.60;90.00;;;;;;5008016;28;20053;-85
2022/01/19 03:55:31;;;;;;;7.05;4.80;;;4.50;90.00;;;;;;5033294;28;20029;-85
2022/01/19 03:57:56;;;;;;;5.00;4.50;;;4.60;90.00;;;;;;5011218;28;20034;-84
2022/01/19 04:00:22;;;;;;;6.35;4.95;;;4.50;90.00;;;;;;5027135;28;20033;-85
2022/01/19 04:02:48;;;;;;;5.55;5.00;;;4.50;90.00;;;;;;5040361;28;20025;-86
2022/01/19 04:05:22;;;;;;;6.53;4.85;;;4.50;90.00;;;;;;4998648;28;20042;-85
2022/01/19 04:07:47;;;;;;;7.03;4.55;;;4.60;90.00;;;;;;5019110;28;20033;-86
2022/01/19 04:10:13;;;;;;;5.88;4.88;;;4.60;90.00;;;;;;5006040;28;20033;-83
2022/01/19 04:15:07;;;;;;;6.72;4.88;;;4.50;90.00;;;;;;5032589;28;20037;-81
2022/01/19 04:17:33;;;;;;;5.97;4.70;;;4.50;90.00;;;;;;4983506;28;20484;-81
2022/01/19 04:19:58;;;;;;;6.03;4.55;;;4.50;90.00;;;;;;4994602;28;20094;-81
2022/01/19 04:22:24;;;;;;;4.43;3.78;;;4.50;89.90;;;;;;5032559;28;20025;-82
2022/01/19 04:24:50;;;;;;;8.82;5.10;;;4.40;89.90;;;;;;5039305;28;20384;-82
2022/01/19 04:32:30;;;;;;;5.35;4.60;;;4.30;89.90;;;;;;5024624;28;20132;-84
2022/01/19 04:34:56;;;;;;;6.88;4.95;;;4.30;90.00;;;;;;5030273;28;20055;-84
2022/01/19 04:37:33;;;;;;;5.93;4.22;;;4.30;90.00;;;;;;5013814;28;20048;-85
2022/01/19 04:48:25;;;;;;;6.18;4.47;;;4.10;89.90;;;;;;5041499;28;20038;-83
2022/01/19 05:02:00;;;;;;;4.35;3.58;;;3.70;89.60;;;;;;5037780;28;20072;-82
2022/01/19 05:04:35;;;;;;;7.47;3.72;;;3.60;89.70;;;;;;5025350;28;20094;-82
2022/01/19 05:07:26;;;;;;;5.05;3.90;;;3.60;89.90;;;;;;5055588;28;20036;-82
2022/01/19 05:15:01;;;;;;;5.57;3.85;;;3.40;89.80;;;;;;5026353;28;20518;-82
2022/01/19 05:17:26;;;;;;;5.10;3.83;;;3.30;89.70;;;;;;5014769;28;20044;-82
2022/01/19 05:19:52;;;;;;;6.45;4.07;;;3.20;89.70;;;;;;5032691;28;20121;-82
2022/01/19 05:22:17;;;;;;;6.82;4.10;;;3.10;89.80;;;;;;5052445;28;20037;-82
2022/01/19 05:24:43;;;;;;;9.38;4.72;;;3.00;89.90;;;;;;5001323;28;20034;-82
2022/01/19 05:27:08;;;;;;;7.30;3.95;;;3.00;90.00;;;;;;5044018;28;20036;-82
2022/01/19 05:29:34;;;;;;;5.15;3.70;;;2.90;90.00;;;;;;4988964;28;20060;-82
2022/01/19 05:31:59;;;;;;;6.30;4.00;;;2.90;90.00;;;;;;5032872;28;20033;-83
2022/01/19 05:34:25;;;;;;;5.75;4.28;;;2.80;90.00;;;;;;5008260;28;20131;-82
2022/01/19 05:36:50;;;;;;;5.47;4.05;;;2.70;90.00;;;;;;5007820;28;20136;-82
2022/01/19 05:39:16;;;;;;;8.02;4.03;;;2.70;90.00;;;;;;5009611;28;20139;-82
2022/01/19 05:41:41;;;;;;;5.85;3.95;;;2.60;90.00;;;;;;4985269;28;20046;-82
2022/01/19 05:44:07;;;;;;;8.55;4.18;;;2.60;90.10;;;;;;5045364;28;20118;-82
2022/01/19 05:46:34;;;;;;;7.32;4.28;;;2.50;90.10;;;;;;5010342;28;20024;-82
2022/01/19 05:49:01;;;;;;;4.40;3.60;;;2.40;90.10;;;;;;5014782;28;20029;-82
2022/01/19 05:51:27;;;;;;;6.55;3.92;;;2.30;90.10;;;;;;5027488;28;20036;-82
2022/01/19 05:53:52;;;;;;;5.50;3.60;;;2.30;90.10;;;;;;5017883;28;20033;-81
2022/01/19 05:56:18;;;;;;;5.63;3.75;;;2.30;90.20;;;;;;5029836;28;20032;-81
2022/01/19 05:58:43;;;;;;;7.63;4.10;;;2.30;90.20;;;;;;5002058;28;20034;-82
2022/01/19 06:01:09;;;;;;;6.63;3.95;;;2.20;90.20;;;;;;4992335;28;20030;-82
2022/01/19 06:03:34;;;;;;;6.43;4.22;;;2.20;90.20;;;;;;5018409;28;20039;-83
2022/01/19 06:06:00;;;;;;;6.93;4.18;;;2.10;90.20;;;;;;5010494;28;20037;-82
2022/01/19 06:10:55;;;;;;;7.53;4.00;;;2.00;90.20;;;;;;5030965;28;20395;-82
2022/01/19 06:13:21;;;;;;;6.38;4.00;;;1.90;90.30;;;;;;5029444;28;20763;-81
2022/01/19 06:15:47;;;;;;;5.85;4.20;;;1.90;90.40;;;;;;5009400;28;20037;-82
2022/01/19 06:18:12;;;;;;;6.60;4.13;;;1.90;90.40;;;;;;4998943;28;20039;-81
2022/01/19 06:20:38;;;;;;;5.78;4.55;;;1.90;90.40;;;;;;5014118;28;20104;-82
2022/01/19 06:23:03;;;;;;;7.90;4.78;;;1.90;90.50;;;;;;5052299;28;20044;-82
2022/01/19 06:25:29;;;;;;;7.50;5.15;;;1.90;90.50;;;;;;5034902;28;20025;-82
2022/01/19 06:27:54;;;;;;;27.65;11.95;;;1.90;90.50;;;;;;4969911;28;20026;-82
2022/01/19 06:30:20;;;;;;;11.25;5.97;;;1.90;90.50;;;;;;5010813;28;20033;-82
2022/01/19 06:32:46;;;;;;;7.55;5.18;;;1.80;90.50;;;;;;5030677;28;20035;-82
2022/01/19 06:35:11;;;;;;;9.40;5.25;;;1.80;90.50;;;;;;4972696;28;1070218;-81
2022/01/19 06:37:37;;;;;;;7.40;4.72;;;1.70;90.50;;;;;;5000915;28;20095;-82
2022/01/19 06:40:06;;;;;;;7.63;4.57;;;1.70;90.50;;;;;;5026341;28;20025;-81
2022/01/19 06:42:31;;;;;;;8.70;5.00;;;1.70;90.50;;;;;;5027361;28;20025;-82
2022/01/19 06:44:57;;;;;;;8.52;4.65;;;1.60;90.50;;;;;;5017534;28;20152;-81
2022/01/19 06:47:22;;;;;;;7.40;4.88;;;1.50;90.50;;;;;;5038860;28;20146;-82
2022/01/19 06:49:48;;;;;;;6.95;4.95;;;1.50;90.50;;;;;;5031038;28;20037;-81
2022/01/19 06:52:13;;;;;;;6.30;4.43;;;1.40;90.50;;;;;;5032728;28;20063;-81
2022/01/19 06:54:39;;;;;;;7.75;4.47;;;1.40;90.50;;;;;;5047800;28;20075;-81
2022/01/19 06:57:11;;;;;;;10.57;4.82;;;1.40;90.60;;;;;;5025421;28;20107;-82
2022/01/19 06:59:36;;;;;;;7.72;5.13;;;1.30;90.70;;;;;;4999932;28;20048;-81
2022/01/19 07:02:02;;;;;;;8.63;5.03;;;1.30;90.70;;;;;;5036364;28;20041;-81
2022/01/19 07:04:27;;;;;;;6.10;4.70;;;1.30;90.70;;;;;;5005427;28;20045;-81
2022/01/19 07:06:53;;;;;;;8.70;4.97;;;1.30;90.70;;;;;;5020980;28;20029;-81
2022/01/19 07:09:18;;;;;;;10.48;4.95;;;1.20;90.70;;;;;;5007620;28;20037;-81
2022/01/19 07:11:44;;;;;;;8.38;4.35;;;1.10;90.70;;;;;;5008250;28;20033;-82
2022/01/19 07:14:12;;;;;;;8.95;4.40;;;1.10;90.70;;;;;;5011533;28;20025;-80
2022/01/19 07:16:38;;;;;;;10.70;5.45;;;1.10;90.70;;;;;;5010978;28;20028;-81
2022/01/19 07:19:04;;;;;;;10.15;4.47;;;1.10;90.80;;;;;;5005141;28;20037;-80
2022/01/19 07:21:29;;;;;;;9.38;4.97;;;1.00;90.80;;;;;;5006016;28;20682;-80
2022/01/19 07:23:55;;;;;;;7.88;4.82;;;1.00;90.80;;;;;;5032118;28;20065;-80
2022/01/19 07:26:20;;;;;;;9.10;4.97;;;1.00;90.80;;;;;;5045219;28;20478;-79
2022/01/19 07:28:46;;;;;;;8.98;5.18;;;0.90;90.90;;;;;;5018705;28;20039;-80
2022/01/19 07:31:12;;;;;;;11.00;5.15;;;0.90;90.90;;;;;;4986577;28;20041;-80
2022/01/19 07:33:37;;;;;;;7.60;5.18;;;0.90;90.90;;;;;;5003749;28;20710;-81
2022/01/19 07:36:03;;;;;;;9.93;4.95;;;0.90;91.00;;;;;;5012786;28;20146;-80
2022/01/19 07:38:28;;;;;;;8.38;5.25;;;0.90;91.00;;;;;;5017444;28;20098;-79
2022/01/19 07:40:54;;;;;;;9.50;5.50;;;0.90;91.00;;;;;;5015894;28;20029;-81
2022/01/19 07:43:20;;;;;;;8.13;5.38;;;0.90;91.10;;;;;;5033910;28;20106;-79
2022/01/19 07:45:45;;;;;;;30.77;11.63;;;0.90;91.10;;;;;;5047086;28;20080;-79
2022/01/19 07:48:11;;;;;;;44.58;18.67;;;0.90;91.10;;;;;;4998870;28;20025;-80
2022/01/19 07:50:37;;;;;;;15.68;9.73;;;0.90;91.10;;;;;;5009966;28;20033;-80
2022/01/19 07:53:03;;;;;;;11.60;7.50;;;0.90;91.10;;;;;;5012775;28;20036;-80
2022/01/19 07:55:28;;;;;;;10.48;6.65;;;0.90;91.10;;;;;;5029796;28;20390;-80
2022/01/19 07:57:54;;;;;;;9.88;6.45;;;0.90;91.20;;;;;;5012582;28;20040;-79
2022/01/19 08:00:20;;;;;;;10.52;6.22;;;0.80;91.20;;;;;;5028073;28;20025;-79
2022/01/19 08:02:46;;;;;;;14.27;8.02;;;0.90;91.20;;;;;;5029038;28;20036;-79
2022/01/19 08:05:11;;;;;;;25.00;17.20;;;0.90;91.20;;;;;;5025202;28;20044;-80
2022/01/19 08:07:37;;;;;;;16.00;8.80;;;0.90;91.30;;;;;;5015059;28;20033;-78
2022/01/19 08:10:06;;;;;;;13.52;8.52;;;0.90;91.70;;;;;;5011008;28;20090;-79
2022/01/19 08:12:32;;;;;;;12.27;7.03;;;0.90;91.30;;;;;;5021662;28;20362;-80
2022/01/19 08:15:00;;;;;;;7.35;5.53;;;0.90;91.30;;;;;;5018850;28;20045;-80
2022/01/19 08:17:29;;;;;;;10.73;6.97;;;0.90;91.30;;;;;;5026341;28;20069;-79
2022/01/19 08:19:55;;;;;;;15.45;8.77;;;0.90;91.30;;;;;;5028077;28;20037;-81
2022/01/19 08:22:20;;;;;;;14.90;8.27;;;0.90;91.40;;;;;;5018790;28;20490;-81
2022/01/19 08:24:46;;;;;;;10.13;6.43;;;1.00;91.50;;;;;;5029910;28;20483;-80
2022/01/19 08:27:12;;;;;;;7.88;5.68;;;1.00;91.50;;;;;;5015884;28;20052;-80
2022/01/19 08:29:37;;;;;;;11.15;7.50;;;1.10;91.60;;;;;;5008711;28;20108;-80
2022/01/19 08:32:06;;;;;;;16.95;8.90;;;1.20;91.60;;;;;;5018031;28;20040;-80
2022/01/19 08:34:32;;;;;;;14.70;8.52;;;1.30;91.70;;;;;;5030396;28;20087;-81
2022/01/19 08:36:58;;;;;;;21.45;11.00;;;1.40;91.70;;;;;;4984668;28;20727;-81
2022/01/19 08:39:26;;;;;;;23.00;11.68;;;1.40;91.70;;;;;;5032449;28;20510;-79
2022/01/19 08:41:53;;;;;;;31.08;15.30;;;1.50;91.80;;;;;;5021755;28;20053;-80
2022/01/19 08:44:20;;;;;;;35.05;16.08;;;1.60;91.80;;;;;;4992169;28;20036;-81
2022/01/19 08:46:45;;;;;;;35.45;16.80;;;1.70;91.80;;;;;;5027145;28;20033;-80
2022/01/19 08:49:12;;;;;;;24.98;12.43;;;1.80;91.80;;;;;;4999001;28;20239;-81
2022/01/19 08:51:37;;;;;;;23.60;13.05;;;1.90;91.90;;;;;;4998112;28;20044;-81
2022/01/19 08:54:03;;;;;;;18.48;10.85;;;2.00;91.90;;;;;;5011067;28;20081;-81
2022/01/19 08:56:28;;;;;;;20.02;10.90;;;2.10;91.90;;;;;;5033303;28;20033;-81
2022/01/19 08:58:54;;;;;;;21.05;10.88;;;2.20;92.00;;;;;;4974086;28;20095;-81
2022/01/19 09:01:19;;;;;;;23.42;13.43;;;2.30;92.00;;;;;;5027082;28;20017;-81
2022/01/19 09:03:45;;;;;;;36.38;19.45;;;2.40;92.00;;;;;;5009871;28;20047;-79
2022/01/19 09:06:11;;;;;;;19.40;11.90;;;2.50;92.00;;;;;;4995950;28;20608;-80
2022/01/19 09:08:37;;;;;;;18.52;10.57;;;2.60;92.00;;;;;;5014044;28;20037;-80
2022/01/19 09:11:03;;;;;;;18.15;10.15;;;2.70;92.00;;;;;;5010262;28;20041;-81
2022/01/19 09:13:28;;;;;;;15.00;9.98;;;2.80;92.00;;;;;;4999358;28;20091;-80
2022/01/19 09:15:54;;;;;;;16.35;8.60;;;3.00;92.40;;;;;;5010138;28;20060;-81
2022/01/19 09:18:25;;;;;;;21.05;10.40;;;3.10;92.00;;;;;;5011189;28;20487;-83
2022/01/19 09:20:51;;;;;;;17.20;10.15;;;3.20;92.00;;;;;;5042938;28;20029;-82
2022/01/19 09:23:16;;;;;;;18.80;10.70;;;3.30;92.00;;;;;;5051508;28;20086;-84
2022/01/19 09:25:42;;;;;;;18.92;9.60;;;3.40;92.00;;;;;;5004921;28;20037;-85
2022/01/19 09:28:08;;;;;;;17.40;8.55;;;3.50;92.00;;;;;;4989268;28;20132;-84
2022/01/19 09:30:34;;;;;;;15.68;9.45;;;3.70;92.00;;;;;;5038215;28;20033;-82
2022/01/19 09:33:11;;;;;;;13.80;8.70;;;3.80;92.00;;;;;;5039794;28;20120;-82
2022/01/19 09:38:21;;;;;;;14.98;10.05;;;4.10;91.90;;;;;;5022588;28;20032;-81
2022/01/19 09:40:47;;;;;;;14.27;9.10;;;4.20;91.80;;;;;;5032645;28;20025;-81
2022/01/19 09:43:13;;;;;;;13.65;7.85;;;4.30;91.70;;;;;;5023971;28;20039;-81
2022/01/19 09:45:39;;;;;;;14.00;8.02;;;4.30;91.70;;;;;;5015722;28;20423;-81
2022/01/19 09:48:05;;;;;;;11.82;7.68;;;4.40;91.50;;;;;;4983345;28;20030;-81
2022/01/19 09:50:30;;;;;;;11.52;7.15;;;4.60;91.50;;;;;;5020371;28;20029;-81
2022/01/19 09:52:56;;;;;;;12.93;7.60;;;4.70;91.40;;;;;;4994275;28;20038;-81
2022/01/19 09:55:21;;;;;;;11.07;6.65;;;4.80;91.40;;;;;;5014706;28;20030;-80
2022/01/19 09:57:47;;;;;;;11.65;6.80;;;4.90;91.30;;;;;;5033349;28;20039;-80
2022/01/19 10:00:13;;;;;;;12.82;7.05;;;5.10;91.30;;;;;;5008554;28;20509;-81
2022/01/19 10:02:38;;;;;;;12.48;5.88;;;5.20;91.20;;;;;;5019893;28;20051;-81
2022/01/19 10:05:07;;;;;;;15.23;6.13;;;5.40;91.10;;;;;;4999577;28;20159;-81
2022/01/19 10:07:33;;;;;;;10.20;5.28;;;5.50;90.90;;;;;;5020416;28;20048;-81
2022/01/19 10:09:59;;;;;;;7.88;5.43;;;5.70;90.90;;;;;;5028643;28;20033;-81
2022/01/19 10:18:19;;;;;;;12.27;5.40;;;6.10;90.50;;;;;;5012666;28;20085;-83
2022/01/19 10:20:46;;;;;;;12.10;4.57;;;6.30;90.60;;;;;;5026179;28;20049;-83
2022/01/19 10:23:39;;;;;;;11.52;5.50;;;6.40;90.50;;;;;;5016001;28;20745;-80
2022/01/19 10:26:06;;;;;;;8.15;5.13;;;6.50;90.10;;;;;;5024905;28;20037;-80
2022/01/19 10:28:53;;;;;;;9.23;5.13;;;6.60;90.10;;;;;;5001325;28;20049;-81
2022/01/19 10:31:19;;;;;;;8.15;5.03;;;6.70;89.90;;;;;;5024659;28;20105;-80
2022/01/19 10:33:44;;;;;;;8.63;5.05;;;6.80;89.70;;;;;;5038002;28;20049;-80
2022/01/19 10:36:10;;;;;;;13.38;5.60;;;6.90;89.30;;;;;;5005884;28;20398;-80
2022/01/19 10:38:35;;;;;;;8.98;5.05;;;6.90;89.00;;;;;;5032183;28;20055;-80
2022/01/19 10:41:02;;;;;;;8.35;5.00;;;7.00;88.80;;;;;;5035612;28;20139;-80
2022/01/19 10:43:57;;;;;;;10.00;4.85;;;7.10;88.80;;;;;;5042656;28;20506;-80
2022/01/19 10:46:27;;;;;;;9.70;5.63;;;7.20;87.70;;;;;;5012737;28;20334;-80
2022/01/19 10:49:07;;;;;;;10.80;4.93;;;7.30;87.80;;;;;;5018820;28;20504;-80
2022/01/19 10:51:39;;;;;;;12.07;4.68;;;7.40;87.80;;;;;;5016736;28;20037;-80
2022/01/19 10:54:16;;;;;;;12.82;6.40;;;7.60;88.20;;;;;;5018072;28;20078;-80
2022/01/19 10:56:43;;;;;;;10.93;5.60;;;7.70;87.20;;;;;;5014689;28;20096;-80
2022/01/19 10:59:13;;;;;;;9.45;5.88;;;7.80;87.50;;;;;;4999917;28;20041;-80
2022/01/19 11:01:51;;;;;;;11.23;5.22;;;7.90;87.20;;;;;;5012711;28;20073;-83
2022/01/19 11:04:25;;;;;;;8.50;4.90;;;8.00;86.50;;;;;;5012949;28;20535;-81
2022/01/19 11:06:55;;;;;;;8.50;4.55;;;8.10;87.00;;;;;;5001509;28;20041;-81
2022/01/19 11:09:23;;;;;;;9.02;5.07;;;8.20;86.90;;;;;;5037153;28;20049;-80
2022/01/19 11:11:48;;;;;;;9.45;4.93;;;8.40;86.90;;;;;;5012907;28;20049;-81
2022/01/19 11:14:15;;;;;;;9.48;5.25;;;8.50;86.30;;;;;;5043793;28;20531;-81
2022/01/19 11:16:42;;;;;;;11.40;4.97;;;8.60;85.70;;;;;;5028119;28;20106;-81
2022/01/19 11:19:11;;;;;;;8.07;4.88;;;8.70;85.10;;;;;;4996153;28;20032;-80
2022/01/19 11:22:12;;;;;;;9.73;4.68;;;8.70;85.00;;;;;;5030323;28;20538;-80
2022/01/19 11:24:46;;;;;;;11.10;5.03;;;8.80;84.60;;;;;;4995672;28;20049;-81
2022/01/19 11:27:11;;;;;;;10.50;4.82;;;8.90;84.40;;;;;;5040188;28;20036;-80
2022/01/19 11:29:38;;;;;;;7.75;4.72;;;9.00;84.40;;;;;;4974757;28;20049;-80
2022/01/19 11:32:16;;;;;;;12.50;5.70;;;9.00;84.20;;;;;;5003058;28;20110;-81
2022/01/19 11:34:48;;;;;;;8.43;5.43;;;9.10;83.30;;;;;;5045332;28;20124;-80
2022/01/19 11:37:31;;;;;;;8.32;4.70;;;9.20;83.40;;;;;;5008612;28;20056;-80
2022/01/19 11:40:08;;;;;;;7.28;5.10;;;9.20;83.00;;;;;;5027781;28;20519;-80
2022/01/19 11:42:33;;;;;;;9.77;5.60;;;9.20;82.30;;;;;;5030274;28;20587;-80
2022/01/19 11:44:59;;;;;;;9.80;5.57;;;9.30;82.50;;;;;;5006416;28;20534;-81
2022/01/19 11:47:28;;;;;;;10.07;5.57;;;9.30;82.30;;;;;;5025245;28;20045;-81
2022/01/19 11:49:55;;;;;;;10.10;5.40;;;9.40;81.90;;;;;;5007752;28;20037;-80
2022/01/19 11:52:24;;;;;;;9.32;5.30;;;9.30;82.00;;;;;;5052540;28;20705;-80
2022/01/19 11:54:50;;;;;;;13.18;6.05;;;9.30;82.00;;;;;;5008074;28;20033;-80
2022/01/19 11:57:22;;;;;;;8.68;5.25;;;9.20;82.00;;;;;;4989335;28;20055;-83
2022/01/19 11:59:47;;;;;;;11.32;6.15;;;9.20;82.00;;;;;;5022935;28;20039;-80
2022/01/19 12:02:26;;;;;;;10.50;5.22;;;9.20;81.70;;;;;;5031329;28;20029;-81
2022/01/19 12:04:58;;;;;;;9.65;6.00;;;9.10;81.70;;;;;;5047490;28;20045;-80
2022/01/19 12:07:41;;;;;;;8.25;5.40;;;9.10;81.20;;;;;;5029690;28;20087;-81
2022/01/19 12:10:14;;;;;;;7.35;5.03;;;9.00;80.70;;;;;;5019736;28;20527;-80
2022/01/19 12:12:54;;;;;;;7.57;4.75;;;8.90;81.10;;;;;;5012851;28;20049;-80
2022/01/19 12:15:53;;;;;;;9.50;4.93;;;8.80;81.20;;;;;;4989523;28;20110;-79
2022/01/19 12:18:51;;;;;;;14.15;5.20;;;8.70;81.00;;;;;;5016712;28;20132;-79
2022/01/19 12:21:29;;;;;;;14.93;7.80;;;8.70;81.60;;;;;;4984187;28;20532;-81
2022/01/19 12:23:54;;;;;;;13.65;6.13;;;8.70;81.60;;;;;;5035383;28;20041;-81
2022/01/19 12:26:20;;;;;;;11.00;6.32;;;8.70;81.40;;;;;;5038306;28;20052;-80
2022/01/19 12:28:50;;;;;;;9.73;5.50;;;8.70;81.50;;;;;;5033958;28;20115;-81
2022/01/19 12:31:25;;;;;;;13.30;5.88;;;8.70;81.90;;;;;;5012548;28;20397;-81
2022/01/19 12:34:02;;;;;;;18.15;9.02;;;8.70;82.00;;;;;;5047895;28;20116;-81
2022/01/19 12:36:48;;;;;;;7.90;5.35;;;8.70;81.30;;;;;;5020972;28;20530;-81
2022/01/19 12:39:26;;;;;;;8.70;5.65;;;8.60;81.70;;;;;;5008599;28;20064;-81
2022/01/19 12:42:17;;;;;;;11.05;6.35;;;8.60;81.00;;;;;;5029601;28;20029;-81
2022/01/19 12:44:57;;;;;;;15.13;7.10;;;8.50;80.80;;;;;;5013217;28;20094;-81
2022/01/19 12:47:25;;;;;;;10.00;5.40;;;8.40;81.60;;;;;;5006753;28;20103;-80
2022/01/19 12:49:58;;;;;;;8.57;5.18;;;8.30;80.80;;;;;;5022343;28;20112;-81
2022/01/19 12:52:25;;;;;;;7.20;4.78;;;8.20;80.40;;;;;;4998926;28;24649;-80
2022/01/19 12:54:52;;;;;;;8.27;5.30;;;8.00;80.70;;;;;;5024956;28;20040;-80
2022/01/19 12:57:17;;;;;;;8.98;5.38;;;7.80;80.80;;;;;;5030551;28;20037;-80
2022/01/19 12:59:44;;;;;;;11.27;6.80;;;7.70;80.90;;;;;;4991725;28;20036;-80
2022/01/19 13:02:13;;;;;;;25.75;11.23;;;7.60;81.20;;;;;;5001990;28;20635;-80
2022/01/19 13:04:39;;;;;;;16.08;8.15;;;7.60;81.20;;;;;;5033962;28;20042;-80
2022/01/19 13:07:20;;;;;;;15.85;7.22;;;7.60;81.40;;;;;;5036619;28;20037;-80
2022/01/19 13:10:22;;;;;;;11.13;6.73;;;7.60;81.20;;;;;;5000628;28;20116;-80
2022/01/19 13:12:56;;;;;;;12.70;6.75;;;7.60;80.90;;;;;;5035909;28;20090;-80
2022/01/19 13:15:23;;;;;;;11.10;6.10;;;7.60;81.20;;;;;;5006704;28;20561;-80
2022/01/19 13:17:51;;;;;;;33.95;13.50;;;7.50;82.00;;;;;;5040359;28;20039;-80
2022/01/19 13:20:21;;;;;;;15.48;6.75;;;7.50;81.00;;;;;;5013420;28;20037;-80
2022/01/19 13:22:51;;;;;;;15.77;8.00;;;7.40;80.80;;;;;;5028184;28;20048;-81
2022/01/19 13:25:34;;;;;;;10.57;5.32;;;7.30;81.10;;;;;;5020824;28;20049;-80
2022/01/19 13:28:01;;;;;;;7.40;5.57;;;7.30;80.80;;;;;;5030391;28;20444;-81
2022/01/19 13:30:28;;;;;;;9.63;4.97;;;7.20;81.00;;;;;;5000500;28;20041;-81
2022/01/19 13:32:54;;;;;;;50.95;32.25;;;7.20;81.10;;;;;;5017130;28;20035;-81
2022/01/19 13:35:19;;;;;;;28.10;15.50;;;7.10;81.10;;;;;;5025582;28;20024;-81
2022/01/19 13:37:55;;;;;;;10.32;6.88;;;7.10;81.20;;;;;;5011380;28;20052;-81
2022/01/19 13:40:30;;;;;;;9.02;5.90;;;7.10;81.00;;;;;;4986142;28;20041;-81
2022/01/19 13:42:58;;;;;;;7.53;5.20;;;7.00;80.80;;;;;;5008499;28;20037;-81
2022/01/19 13:45:37;;;;;;;8.02;5.32;;;7.00;81.00;;;;;;5012344;28;20041;-81
2022/01/19 13:50:41;;;;;;;8.40;5.38;;;6.90;80.90;;;;;;5006576;28;20890;-81
2022/01/19 13:53:06;;;;;;;8.57;4.82;;;6.90;81.10;;;;;;5008850;28;20048;-81
2022/01/19 13:55:32;;;;;;;8.52;5.18;;;6.80;81.00;;;;;;4980736;28;20041;-81
2022/01/19 13:58:10;;;;;;;8.77;5.30;;;6.70;80.90;;;;;;5009001;28;20043;-81
2022/01/19 14:00:57;;;;;;;7.00;4.95;;;6.70;81.00;;;;;;4974787;28;20025;-82
2022/01/19 14:03:24;;;;;;;8.80;5.38;;;6.60;80.80;;;;;;5020965;28;20404;-81
2022/01/19 14:05:54;;;;;;;9.20;5.47;;;6.60;81.20;;;;;;5006499;28;20037;-81
2022/01/19 14:08:31;;;;;;;8.35;5.05;;;6.50;81.30;;;;;;5000800;28;20398;-81
2022/01/19 14:10:57;;;;;;;8.73;5.22;;;6.40;81.10;;;;;;5018230;28;20029;-81
2022/01/19 14:13:35;;;;;;;9.98;5.65;;;6.40;81.50;;;;;;4983705;28;20039;-81
2022/01/19 14:16:19;;;;;;;8.10;5.25;;;6.40;81.40;;;;;;5013444;28;20520;-81
2022/01/19 14:19:15;;;;;;;8.00;5.30;;;6.30;81.50;;;;;;5013273;28;20041;-81
2022/01/19 14:21:57;;;;;;;7.80;5.13;;;6.30;81.50;;;;;;4989273;28;20037;-81
2022/01/19 14:24:23;;;;;;;9.25;5.32;;;6.30;81.60;;;;;;5024250;28;20040;-81
2022/01/19 14:26:50;;;;;;;8.70;5.55;;;6.30;81.70;;;;;;5012072;28;20037;-81